Timeline UpdatesTrip UpdatesNews PostsPvt PostsTravel TipsAdmin PostsConv PostsFollowed PostsChat RequestsBlog PostsPNR Posts

Disclaimer
Search
 
 
Sat Apr 19, 2014 07:28:19 ISTHomeTrainsΣChainsAtlasPNRForumGalleryNewsFAQTripsMembersLoginFeedback
No Recent News for this Train
Other Trains in the News **new
Latest...
One Sleeper and unreserved coach for Nandurbar from 59441 Mumbai Ahmedabad passenger is attached to this train at Surat.
Fri Feb 04, 2011 (12:38PM)
⇐ Return Journey: Train# 59076

59075/Surat - Bhusaval Passenger

Feb 23 2014 (12:44AM)
Change Departure Station:
Change Arrival Station:
Post a Train Travel TipPost a Train Travel Tip **new
Post a Comment/Question/Picture/VideoPost a Comment/Question/Picture/Video
Pantry/Catering
✕ NO Pantry Car
✓ Catering Avbl
RSA - Rake Sharing
Rake/Coach Composition
Loco
BSL WAM4.
News    PNR    Forum    Time-Table    Availability    Fare Chart    Map    Arr/Dep History    Trips    Gallery    ΣChains    X/O    Timeline    
Travel Time: 11h 29m    41 halts    Distance: 319 km    Avg Speed: 27 km/hr
Type: Passenger
Zone: WR/Western
Departs @ 07:51 (Avg 20m late)
Platform# 1
SMTWTFS
Chalthan/CHM 
Arrives @ 19:20 (Avg 19m late)
Platform# 1
SMTWTFS
Bhusaval Junction/BSL 

41 halts. 43 intermediate Stations between Chalthan and Bhusaval Junction

Show ALL intermediate Stations  Show Old Time-Table

#CodeStation NameX/OArrivesAvgDepartsAvgHaltPFDay#KmSpeedElevZoneAddress
1STSurat (4)  -07:20+341-15.53019mWRSurat 395001, Gujarat
2UDNUdhna Junction (3)O  07:28+907:30+152m31-11.53516mWRUdhna 394210, Gujarat
3NOLNiyol (1)  07:41+1707:43+172m11-5.05018mWRSurat, Gujarat
4CHM»Chalthan (1)»O  07:49+1707:51+202m110.03823mWRKadodra, Gujarat
5BGMRBagumra (1)  07:58+2107:59+211m--14.45122mWRNational Highway 6, Gujarat
6GGARGangadhara (1)X  08:05+2108:07+232m119.52727mWRKareli, Gujarat
7BIYBardoli (2)X  08:21+1908:23+222m--115.75135mWRNear Bardoli Sugar Factory Bardoli, Gujarat
8TBVTimbarva (1)  08:31+2608:33+282m1122.54135mWRTimberva, Gujarat
9MGRLMangrolla (1)O  08:37+3108:39+302m1125.24636mWRPipariya, Gujarat
10MIDMadhi (1)  08:46+2908:48+312m1130.53645mWRMadhi, Gujarat
11KRAIKaher (1)O  08:57+3008:59+302m1135.94655mWRKaher, Gujarat
12LTVLotarva (1)  09:03+3109:05+312m1139.02657mWRSankr Main Rd, Gujarat
13VYAVyara (2)  09:20+2809:22+292m2145.54990mWRVyara, Gujarat
14KKRDKikakui Road (1)  09:36+2909:38+292m1157.038114mWRGujarat 394650 ?, Gujarat
15DSDDosvada (1)  09:42+3009:44+292m1159.646121mWRNational Highway 6, Gujarat
16USDUkai Songadh (2)XO  09:50+2909:52+302m1164.262139mWRSongadh, Gujarat
17LKKDLakkad Kot (1)  09:59+3310:01+352m1171.437122mWRGujarat 394375 ?, Gujarat
18BBAIBhadbhunja (1)XO  10:09+3510:11+352m1176.333126mWRGujarat 394375 ?, Gujarat
19NWUNavapur (2)  10:31+2910:33+352m--187.457124mWRNavapur, Gujarat
20KFFKolda (1)O  10:44+3610:46+352m1197.848160mWRGangapur, Maharashtra
21CPDChinchpada (1)O  10:54+3710:56+412m11104.159178mWRGangapur, Maharashtra
22KHTGKhatgaon (1)O  11:06+4211:08+452m11113.928178mWRState Highway 5, Maharashtra
23KBHKhandbara (1)  11:27+3911:29+502m11122.716198mWRKhandbara, Maharashtra
24DWDDhekwad (1)  12:20+2512:22+282m11136.324209mWRState Highway 5, Maharashtra
25NDBNandurbar (3)XO  12:45+1814:10+2285m--1145.334203mWRNandurbar, Maharashtra
26CUEChoupale (1)  14:19+2414:21+272m11150.552208mWRNehru Nagar, Maharashtra
27TISITisi (1)  14:30+2714:32+312m11158.244185mWRState Highway 7, Maharashtra
28RNLRanala (1)X  14:45+2814:47+372m11167.755164mWRState Highway 6, Maharashtra
29DDEDondaicha (2)X  15:00+3515:02+402m11179.738163mWRDondaicha, Maharashtra
30VKHVikhran (1)  15:15+3815:17+402m11187.941176mWRMSH1, Maharashtra
31SNSLSonshelu (1)  15:24+3515:26+342m11192.732185mWRMSH1, Maharashtra
32SNKSindkheda (1)  15:38+3415:40+342m11199.150178mWRState Highway 11, Maharashtra
33HOLHol (1)X  15:50+3515:52+352m11207.425185mWRState Highway 6, Maharashtra
34NDNNardana (1)  16:04+3116:06+322m11212.451184mWRNardana, Maharashtra
35BEWBetavad (1)  16:14+3216:16+312m11219.156178mWRState Highway 6, Maharashtra
36PDPPadse  16:22+3016:24+312m--1224.736181mWRDhule, Maharashtra
37BRTKBhortexX  16:37+2716:39+272m--1232.615180mWRVadhoda, Maharashtra
38ANAmalner (1)X  17:12+1517:15+153m11240.762188mWRAmalner, Maharashtra
39TKHETakarkhede (1)  17:26+1717:28+162m11252.144203mWRState Highway 6, Maharashtra
40BHNEBhone (2)X  17:36+1717:38+172m--1258.051196mWRState Highway 185, Maharashtra
41DXGDharangaon  17:47+1717:49+172m--1265.648217mWRDharangaon, Maharashtra
42CHLKChavalkhedeX  17:58+1718:00+232m--1272.749196mWRState Highway 185, Maharashtra
43PLDPaldhi (2)  18:14+2318:16+262m--1284.225208mWRPaldhi, Maharashtra
44JLJalgaon Junction (4)  18:43+1018:45+152m41295.346213mCRJalgaon 425001, Maharashtra
45BDIBhadli (2)  19:00+2819:02+292m--1306.842211mCRBhadli, Maharashtra
46BSL•Bhusaval Junction (8)•  19:20+19-11319.4-208mCRBhusaval 425201, Maharashtra
Scroll to Top
Scroll to Bottom